Estación Meteorológica Peña el Pijo (Robertgarden) [ 12/17/17 01:39:43 CET ]

Fecha Hora Presion(HPa) Temp (°C) Humedad % Rocio (°C) Viento ( m/s) Direccion Lluvia 1Hora(mm) Lluvia 24H(mm) LLuvia Total(mm)
2017-Dec-06 01:01:39 1021.300 -3.9 69 -8.8         0.00
2017-Dec-06 02:09:15 1020.900 -4.7 70 -9.3         0.00
2017-Dec-06 03:01:44 1020.800 -5.3 72 -9.6         0.00
2017-Dec-06 04:01:41 1020.800 -5.7 73 -9.8         0.00
2017-Dec-06 05:01:44 1020.600 -6.6 74 -10.5         0.00
2017-Dec-06 06:01:45 1020.300 -6.9 75 -10.6         0.00
2017-Dec-06 07:01:33 1020.400 -7.0 76 -10.6         0.00
2017-Dec-06 08:02:00 1020.600 -5.8 76 -9.4         0.00
2017-Dec-06 09:01:44 1020.600 -5.5 76 -9.1         0.00
2017-Dec-06 10:01:50 1020.700 0.9 75 -3.1         0.00
2017-Dec-06 11:01:52 1020.500 7.8 52 -1.5         0.00
2017-Dec-06 12:01:33 1020.000 11.6 33 -4.2         0.00
2017-Dec-06 13:01:49 1019.300 12.6 30 -4.5         0.00
2017-Dec-06 14:01:43 1018.500 14.0 26 -5.4 0.7 E     0.00
2017-Dec-06 15:01:46 1017.900 14.1 27 -4.8         0.00
2017-Dec-06 16:01:48 1017.800 13.2 29 -4.6 0.9 SSW     0.00
2017-Dec-06 17:01:44 1018.000 9.6 34 -5.6         0.00
2017-Dec-06 18:02:00 1018.500 5.3 43 -6.4         0.00
2017-Dec-06 19:01:38 1019.100 1.0 53 -7.6         0.00
2017-Dec-06 20:01:46 1019.500 -1.1 61 -7.7         0.00
2017-Dec-06 21:01:39 1019.600 -1.4 64 -7.4         0.00
2017-Dec-06 22:01:50 1019.500 -1.4 67 -6.8         0.00
2017-Dec-06 23:01:51 1019.500 -1.6 68 -6.7         0.00

Temperatura Máxima:14°    Temperatura Mínima:-7°
Presión Máxima:1021.300 Hpa    Presión Mínima:1017.800 Hpa


Volver